Time;durP1;ratioP1;P1;durP2;ratioP2;P2;SDS_P1;SDS_P2;PMS_P1;PMS_P2;Temp;Humidity;BMP_temperature;BMP_pressure;BME280_temperature;BME280_humidity;BME280_pressure;Samples;Min_cycle;Max_cycle;Signal;HPM_P1;HPM_P2
2021/05/08 00:01:52;;;;;;;3.03;1.62;;;9.20;68.60;;;;;;2351448;53;20939;-65
2021/05/08 00:04:19;;;;;;;2.53;1.35;;;9.20;68.60;;;;;;2368206;53;21371;-64
2021/05/08 00:06:45;;;;;;;2.97;1.40;;;9.20;68.60;;;;;;2347607;54;20917;-64
2021/05/08 00:09:12;;;;;;;2.80;1.45;;;9.20;68.50;;;;;;2367340;53;21009;-66
2021/05/08 00:11:38;;;;;;;2.25;1.17;;;9.10;68.50;;;;;;2352304;53;20919;-65
2021/05/08 00:14:05;;;;;;;3.10;1.50;;;9.10;68.40;;;;;;2362337;53;21824;-63
2021/05/08 00:16:31;;;;;;;2.92;1.58;;;9.10;68.40;;;;;;2357580;53;21794;-64
2021/05/08 00:18:58;;;;;;;2.90;1.30;;;9.00;68.30;;;;;;2371462;53;21049;-65
2021/05/08 00:21:24;;;;;;;3.15;1.60;;;9.00;68.30;;;;;;2365560;53;20988;-65
2021/05/08 00:23:52;;;;;;;3.85;1.73;;;9.00;68.40;;;;;;2354370;53;20922;-65
2021/05/08 00:26:18;;;;;;;2.87;1.40;;;8.90;68.40;;;;;;2353277;53;21027;-64
2021/05/08 00:28:44;;;;;;;3.83;1.70;;;8.90;68.50;;;;;;2365617;53;20966;-64
2021/05/08 00:31:10;;;;;;;3.00;1.70;;;8.90;68.60;;;;;;2370742;53;20926;-65
2021/05/08 00:33:37;;;;;;;2.90;1.65;;;8.90;68.60;;;;;;2371451;53;20982;-64
2021/05/08 00:36:05;;;;;;;3.80;1.25;;;8.80;68.60;;;;;;2371602;53;20945;-64
2021/05/08 00:38:31;;;;;;;3.17;1.50;;;8.80;68.70;;;;;;2357106;53;20944;-63
2021/05/08 00:40:58;;;;;;;3.12;1.75;;;8.80;68.70;;;;;;2362773;53;21025;-63
2021/05/08 00:43:24;;;;;;;3.42;1.62;;;8.80;68.80;;;;;;2371436;53;20961;-65
2021/05/08 00:45:50;;;;;;;3.85;2.00;;;8.80;68.90;;;;;;2371449;53;20978;-65
2021/05/08 00:48:16;;;;;;;3.67;2.12;;;8.70;68.90;;;;;;2371271;53;20966;-65
2021/05/08 00:50:43;;;;;;;4.25;1.90;;;8.70;68.90;;;;;;2371395;53;20973;-64
2021/05/08 00:53:09;;;;;;;3.53;1.85;;;8.70;69.00;;;;;;2371971;53;20934;-65
2021/05/08 00:55:36;;;;;;;4.65;2.03;;;8.70;69.20;;;;;;2321488;55;21255;-65
2021/05/08 00:58:06;;;;;;;3.53;1.90;;;8.70;69.20;;;;;;2343834;54;21019;-65
2021/05/08 01:00:33;;;;;;;3.35;2.05;;;8.70;69.20;;;;;;2343667;53;20985;-63
2021/05/08 01:02:59;;;;;;;3.17;1.77;;;8.70;69.20;;;;;;2347493;53;21485;-64
2021/05/08 01:05:27;;;;;;;2.58;1.48;;;8.60;69.10;;;;;;2339683;53;21785;-64
2021/05/08 01:07:55;;;;;;;3.92;1.70;;;8.60;69.90;;;;;;2343938;53;20936;-65
2021/05/08 01:10:21;;;;;;;4.45;2.17;;;8.60;69.20;;;;;;2344644;53;20952;-65
2021/05/08 01:12:47;;;;;;;3.42;1.80;;;8.60;69.20;;;;;;2585390;52;20960;-64
2021/05/08 01:15:14;;;;;;;3.75;1.80;;;8.60;69.20;;;;;;2362962;53;20981;-64
2021/05/08 01:17:41;;;;;;;3.53;1.83;;;8.60;69.20;;;;;;2372087;53;21996;-65
2021/05/08 01:20:09;;;;;;;3.45;1.85;;;8.60;69.10;;;;;;2351352;54;21069;-65
2021/05/08 01:22:35;;;;;;;3.83;1.98;;;8.50;68.90;;;;;;2353579;53;20942;-63
2021/05/08 01:25:03;;;;;;;4.10;1.90;;;8.50;68.90;;;;;;2371886;53;20938;-64
2021/05/08 01:27:29;;;;;;;3.30;1.80;;;8.50;68.90;;;;;;2372477;53;20989;-64
2021/05/08 01:29:55;;;;;;;3.58;2.08;;;8.50;68.80;;;;;;2371811;53;20929;-63
2021/05/08 01:32:22;;;;;;;3.05;1.70;;;8.40;68.70;;;;;;2373827;53;20922;-64
2021/05/08 01:34:48;;;;;;;4.25;1.95;;;8.40;68.80;;;;;;2350292;53;21121;-63
2021/05/08 01:37:15;;;;;;;3.75;1.80;;;8.30;68.70;;;;;;2371963;53;21368;-65
2021/05/08 01:39:41;;;;;;;3.90;1.73;;;8.30;68.80;;;;;;2372054;53;20950;-63
2021/05/08 01:42:09;;;;;;;3.35;1.77;;;8.30;68.80;;;;;;2367185;53;21046;-64
2021/05/08 01:44:36;;;;;;;3.78;1.87;;;8.30;68.90;;;;;;2347146;53;21375;-64
2021/05/08 01:47:02;;;;;;;3.53;1.92;;;8.20;68.90;;;;;;2358230;53;20942;-64
2021/05/08 01:49:28;;;;;;;3.00;1.60;;;8.20;69.10;;;;;;2366388;53;20918;-65
2021/05/08 01:51:54;;;;;;;3.15;1.80;;;8.20;69.30;;;;;;2359047;53;20991;-64
2021/05/08 01:54:25;;;;;;;3.95;1.87;;;8.20;69.50;;;;;;2438252;53;20995;-63
2021/05/08 01:56:52;;;;;;;3.92;1.90;;;8.20;69.60;;;;;;2350004;53;20954;-65
2021/05/08 01:59:18;;;;;;;4.80;1.75;;;8.20;69.70;;;;;;2363711;53;20994;-64
2021/05/08 02:01:44;;;;;;;4.43;1.50;;;8.20;69.70;;;;;;2360493;53;20926;-65
2021/05/08 02:04:11;;;;;;;2.87;1.40;;;8.20;69.70;;;;;;2624750;52;20965;-63
2021/05/08 02:06:37;;;;;;;3.60;1.75;;;8.20;69.70;;;;;;2371868;53;21006;-65
2021/05/08 02:09:06;;;;;;;2.90;1.60;;;8.20;69.70;;;;;;2371869;53;20938;-64
2021/05/08 02:11:33;;;;;;;4.10;1.60;;;8.10;69.60;;;;;;2624309;52;21844;-64
2021/05/08 02:13:59;;;;;;;3.08;1.67;;;8.10;69.70;;;;;;2350431;54;21015;-66
2021/05/08 02:16:25;;;;;;;3.05;1.33;;;8.10;69.60;;;;;;2367642;53;20944;-64
2021/05/08 02:18:51;;;;;;;3.28;1.65;;;8.10;69.60;;;;;;2358972;53;21001;-63
2021/05/08 02:21:18;;;;;;;3.42;1.70;;;8.10;69.40;;;;;;2348348;53;21033;-63
2021/05/08 02:23:44;;;;;;;3.62;1.77;;;8.10;69.30;;;;;;2372094;53;21815;-64
2021/05/08 02:26:10;;;;;;;4.60;1.58;;;8.10;69.30;;;;;;2372195;53;20946;-64
2021/05/08 02:28:38;;;;;;;2.85;1.30;;;8.10;69.20;;;;;;2621155;52;20951;-65
2021/05/08 02:31:04;;;;;;;3.00;1.27;;;8.00;69.20;;;;;;2573797;52;20907;-66
2021/05/08 02:33:30;;;;;;;2.55;1.23;;;8.00;69.20;;;;;;2372127;53;20937;-65
2021/05/08 02:36:02;;;;;;;4.97;1.20;;;8.00;69.20;;;;;;2607834;52;20991;-63
2021/05/08 02:38:31;;;;;;;3.05;1.25;;;8.00;69.30;;;;;;2364276;54;20965;-65
2021/05/08 02:40:58;;;;;;;2.42;1.15;;;7.90;69.10;;;;;;2352522;53;20923;-63
2021/05/08 02:43:24;;;;;;;3.15;1.50;;;7.90;69.20;;;;;;2360586;53;20967;-64
2021/05/08 02:45:53;;;;;;;2.62;1.17;;;7.90;69.20;;;;;;2347615;53;20922;-65
2021/05/08 02:48:19;;;;;;;2.90;1.40;;;7.90;69.10;;;;;;2502686;53;21041;-64
2021/05/08 02:50:46;;;;;;;2.60;1.20;;;7.80;69.00;;;;;;2624857;52;20938;-64
2021/05/08 02:53:12;;;;;;;2.83;1.30;;;7.80;69.10;;;;;;2371654;53;20875;-64
2021/05/08 02:55:39;;;;;;;5.57;1.33;;;7.80;69.00;;;;;;2372616;53;21521;-64
2021/05/08 02:58:05;;;;;;;2.62;1.40;;;7.80;69.00;;;;;;2371772;53;20914;-64
2021/05/08 03:00:32;;;;;;;4.10;1.60;;;7.70;68.90;;;;;;2372081;53;20930;-64
2021/05/08 03:02:58;;;;;;;3.33;1.30;;;7.70;68.90;;;;;;2371797;53;20910;-64
2021/05/08 03:05:25;;;;;;;2.65;1.25;;;7.70;68.90;;;;;;2375306;53;21010;-65
2021/05/08 03:07:52;;;;;;;2.70;1.30;;;7.70;68.90;;;;;;2370818;53;20999;-63
2021/05/08 03:10:19;;;;;;;3.22;1.30;;;7.60;68.90;;;;;;2353529;53;21023;-64
2021/05/08 03:12:45;;;;;;;3.30;1.25;;;7.60;69.00;;;;;;2353559;53;20914;-63
2021/05/08 03:15:12;;;;;;;3.33;1.40;;;7.60;69.00;;;;;;2591527;52;20987;-63
2021/05/08 03:17:38;;;;;;;2.30;1.15;;;7.60;69.10;;;;;;2604449;52;20960;-65
2021/05/08 03:20:05;;;;;;;3.03;1.23;;;7.50;69.00;;;;;;2332102;54;20951;-63
2021/05/08 03:22:31;;;;;;;2.08;1.12;;;7.50;68.90;;;;;;2343733;53;20933;-64
2021/05/08 03:28:38;;;;;;;2.10;1.08;;;7.50;68.50;;;;;;2601707;52;21588;-63
2021/05/08 03:31:22;;;;;;;2.10;1.20;;;7.40;68.70;;;;;;2360214;53;20998;-64
2021/05/08 03:33:57;;;;;;;2.90;1.30;;;7.40;68.40;;;;;;2367256;53;21017;-64
2021/05/08 03:36:26;;;;;;;2.28;0.90;;;7.30;68.60;;;;;;2351978;54;21017;-65
2021/05/08 03:38:52;;;;;;;2.20;1.05;;;7.30;68.90;;;;;;2358290;53;20919;-63
2021/05/08 03:41:20;;;;;;;3.58;1.27;;;7.30;69.00;;;;;;2552819;52;20995;-64
2021/05/08 03:44:22;;;;;;;2.33;1.10;;;7.20;69.00;;;;;;2597735;52;20956;-63
2021/05/08 03:47:10;;;;;;;2.22;1.05;;;7.20;68.80;;;;;;2352601;53;20987;-65
2021/05/08 03:49:37;;;;;;;2.67;1.10;;;7.20;68.80;;;;;;2357188;53;20943;-63
2021/05/08 03:52:04;;;;;;;1.92;0.82;;;7.20;69.20;;;;;;2509343;52;20914;-65
2021/05/08 03:54:30;;;;;;;3.22;0.93;;;7.10;69.20;;;;;;2372236;53;21033;-63
2021/05/08 03:56:57;;;;;;;2.17;0.98;;;7.10;69.30;;;;;;2624531;52;20917;-64
2021/05/08 03:59:24;;;;;;;4.37;1.20;;;7.10;69.40;;;;;;2366658;53;21545;-64
2021/05/08 04:01:50;;;;;;;2.60;1.02;;;7.10;69.40;;;;;;2597872;52;21330;-65
2021/05/08 04:04:17;;;;;;;2.05;0.95;;;7.10;69.50;;;;;;2354174;53;20948;-64
2021/05/08 04:06:45;;;;;;;1.90;0.93;;;7.10;69.60;;;;;;2343792;53;20982;-64
2021/05/08 04:09:12;;;;;;;2.00;0.90;;;7.10;69.60;;;;;;2358034;53;20934;-65
2021/05/08 04:11:40;;;;;;;2.42;0.93;;;7.10;69.70;;;;;;2371086;53;21000;-64
2021/05/08 04:14:07;;;;;;;2.00;0.95;;;7.10;69.90;;;;;;2371948;53;20958;-64
2021/05/08 04:16:33;;;;;;;2.10;0.88;;;7.10;70.10;;;;;;2372311;53;20993;-63
2021/05/08 04:19:00;;;;;;;2.05;0.90;;;7.10;70.30;;;;;;2372001;53;21560;-64
2021/05/08 04:21:27;;;;;;;3.05;0.80;;;7.10;70.40;;;;;;2364881;53;21390;-65
2021/05/08 04:23:53;;;;;;;1.95;0.75;;;7.10;70.50;;;;;;2358440;53;20914;-64
2021/05/08 04:26:19;;;;;;;2.22;1.00;;;7.20;70.70;;;;;;2621520;52;20930;-65
2021/05/08 04:28:51;;;;;;;2.17;1.00;;;7.20;70.70;;;;;;2352690;53;20925;-65
2021/05/08 04:31:18;;;;;;;1.87;0.90;;;7.20;70.70;;;;;;2624604;52;20926;-65
2021/05/08 04:33:44;;;;;;;2.87;1.10;;;7.20;70.70;;;;;;2372102;53;20914;-64
2021/05/08 04:36:10;;;;;;;2.70;1.25;;;7.30;70.70;;;;;;2371842;53;20996;-64
2021/05/08 04:38:38;;;;;;;1.90;0.93;;;7.30;70.60;;;;;;2351029;53;21016;-65
2021/05/08 04:41:05;;;;;;;3.12;1.50;;;7.30;70.50;;;;;;2352809;53;22346;-65
2021/05/08 04:43:31;;;;;;;2.60;1.20;;;7.30;70.40;;;;;;2365993;53;21085;-64
2021/05/08 04:45:58;;;;;;;2.50;1.12;;;7.30;70.40;;;;;;2477984;53;20910;-64
2021/05/08 04:48:25;;;;;;;2.67;1.08;;;7.30;70.40;;;;;;2371798;53;20969;-64
2021/05/08 04:50:52;;;;;;;2.67;1.20;;;7.30;70.60;;;;;;2366502;53;21033;-64
2021/05/08 04:53:18;;;;;;;1.23;0.70;;;7.30;70.80;;;;;;2362199;53;20965;-65
2021/05/08 04:55:46;;;;;;;1.80;0.90;;;7.30;71.00;;;;;;2344702;54;21025;-64
2021/05/08 04:58:12;;;;;;;2.00;0.98;;;7.30;71.20;;;;;;2372973;53;20981;-64
2021/05/08 05:00:39;;;;;;;1.73;0.80;;;7.40;71.50;;;;;;2335366;54;20915;-64
2021/05/08 05:03:05;;;;;;;3.30;1.12;;;7.40;72.20;;;;;;2360538;53;20950;-65
2021/05/08 05:05:32;;;;;;;4.90;2.37;;;7.50;71.70;;;;;;2352888;54;21810;-64
2021/05/08 05:07:58;;;;;;;3.08;1.42;;;7.50;71.80;;;;;;2366851;53;21487;-63
2021/05/08 05:10:25;;;;;;;2.80;1.35;;;7.60;72.00;;;;;;2360141;53;20939;-65
2021/05/08 05:12:52;;;;;;;3.75;1.40;;;7.60;72.10;;;;;;2341880;54;21003;-64
2021/05/08 05:15:29;;;;;;;4.35;1.60;;;7.60;72.10;;;;;;2369656;53;20937;-64
2021/05/08 05:17:55;;;;;;;3.00;2.20;;;7.70;72.10;;;;;;2366701;53;21719;-64
2021/05/08 05:20:37;;;;;;;2.92;2.00;;;7.80;72.50;;;;;;2368125;53;20914;-64
2021/05/08 05:23:04;;;;;;;3.67;2.12;;;7.80;72.20;;;;;;2349963;53;21069;-65
2021/05/08 05:25:49;;;;;;;3.60;1.42;;;7.90;72.70;;;;;;2606687;52;21024;-65
2021/05/08 05:28:22;;;;;;;3.40;1.70;;;8.00;72.50;;;;;;2362138;53;20942;-65
2021/05/08 05:30:49;;;;;;;2.53;1.25;;;8.10;73.00;;;;;;2585856;52;20948;-64
2021/05/08 05:33:15;;;;;;;2.95;1.33;;;8.10;73.20;;;;;;2343081;53;21427;-64
2021/05/08 05:35:42;;;;;;;2.72;1.27;;;8.20;73.50;;;;;;2370120;53;21813;-65
2021/05/08 05:38:09;;;;;;;3.03;1.55;;;8.30;73.80;;;;;;2347090;54;20934;-65
2021/05/08 05:41:06;;;;;;;3.15;1.58;;;8.40;74.10;;;;;;2341152;54;21791;-65
2021/05/08 05:43:32;;;;;;;3.70;1.60;;;8.50;74.00;;;;;;2353220;53;21873;-64
2021/05/08 05:45:59;;;;;;;3.83;1.60;;;8.60;74.80;;;;;;2359370;53;20912;-65
2021/05/08 05:48:25;;;;;;;2.85;1.40;;;8.80;75.30;;;;;;2354023;53;20955;-64
2021/05/08 05:50:52;;;;;;;2.55;1.25;;;8.90;75.70;;;;;;2354007;54;21731;-64
2021/05/08 05:53:19;;;;;;;2.70;1.40;;;9.10;76.00;;;;;;2502252;52;20922;-65
2021/05/08 05:55:48;;;;;;;3.05;1.35;;;9.20;76.30;;;;;;2334941;54;20911;-65
2021/05/08 05:58:14;;;;;;;2.70;1.52;;;9.40;76.60;;;;;;2366854;53;21743;-64
2021/05/08 06:00:42;;;;;;;3.78;1.52;;;9.50;76.60;;;;;;2616959;52;21443;-65
2021/05/08 06:03:27;;;;;;;3.17;1.67;;;9.70;76.60;;;;;;2365851;53;20934;-65
2021/05/08 06:05:53;;;;;;;3.50;2.15;;;9.90;75.90;;;;;;2619412;52;20922;-65
2021/05/08 06:08:24;;;;;;;4.95;1.85;;;10.00;75.50;;;;;;2371238;53;20982;-65
2021/05/08 06:10:50;;;;;;;3.75;1.60;;;10.10;75.60;;;;;;2371143;53;20954;-65
2021/05/08 06:13:17;;;;;;;2.78;1.40;;;10.30;75.70;;;;;;2371206;53;20977;-66
2021/05/08 06:15:43;;;;;;;3.87;1.52;;;10.40;75.60;;;;;;2352411;53;21016;-64
2021/05/08 06:18:09;;;;;;;2.87;1.37;;;10.60;75.70;;;;;;2365692;53;20990;-65
2021/05/08 06:20:48;;;;;;;3.03;1.30;;;10.70;75.80;;;;;;2473030;52;20999;-64
2021/05/08 06:23:15;;;;;;;2.60;1.27;;;10.90;75.40;;;;;;2353963;53;21332;-65
2021/05/08 06:25:41;;;;;;;3.35;1.67;;;11.00;76.10;;;;;;2368949;53;20922;-67
2021/05/08 06:28:08;;;;;;;3.83;2.33;;;11.20;76.30;;;;;;2624281;52;20947;-64
2021/05/08 06:30:34;;;;;;;3.53;2.10;;;11.30;76.30;;;;;;2358641;53;20911;-65
2021/05/08 06:33:00;;;;;;;5.78;2.30;;;11.50;76.40;;;;;;2357237;53;20941;-64
2021/05/08 06:35:27;;;;;;;4.72;2.12;;;11.60;76.50;;;;;;2371219;53;20958;-64
2021/05/08 06:37:53;;;;;;;4.45;2.55;;;11.80;76.60;;;;;;2367789;53;20914;-66
2021/05/08 06:40:22;;;;;;;4.22;2.47;;;11.90;76.60;;;;;;2371928;53;21033;-65
2021/05/08 06:42:48;;;;;;;5.10;2.67;;;12.10;76.80;;;;;;2352359;53;20952;-66
2021/05/08 06:45:15;;;;;;;5.57;2.55;;;12.30;76.80;;;;;;2366242;53;20989;-65
2021/05/08 06:47:42;;;;;;;4.72;2.62;;;12.40;76.60;;;;;;2366973;53;21498;-68
2021/05/08 06:51:01;;;;;;;4.80;2.40;;;12.60;76.70;;;;;;2365680;52;21495;-69
2021/05/08 06:53:29;;;;;;;3.85;2.17;;;12.80;75.40;;;;;;2337903;54;21051;-68
2021/05/08 06:55:55;;;;;;;6.62;3.85;;;13.00;76.60;;;;;;2370998;53;20981;-67
2021/05/08 06:58:23;;;;;;;5.43;3.30;;;13.10;76.40;;;;;;2371371;53;20946;-67
2021/05/08 07:00:49;;;;;;;4.97;2.80;;;13.20;76.00;;;;;;2364976;53;20941;-67
2021/05/08 07:03:15;;;;;;;4.93;2.28;;;13.30;76.30;;;;;;2371673;53;20918;-67
2021/05/08 07:05:43;;;;;;;5.53;2.67;;;13.50;76.50;;;;;;2371858;53;20937;-66
2021/05/08 07:08:19;;;;;;;3.30;2.00;;;13.70;76.80;;;;;;2351834;53;20939;-67
2021/05/08 07:10:52;;;;;;;4.40;2.20;;;13.80;76.20;;;;;;2363922;53;20936;-66
2021/05/08 07:13:20;;;;;;;3.40;1.75;;;14.00;75.90;;;;;;2357648;54;21839;-68
2021/05/08 07:16:02;;;;;;;3.05;1.70;;;14.20;76.90;;;;;;2603850;52;21748;-68
2021/05/08 07:18:29;;;;;;;3.53;1.80;;;14.40;76.10;;;;;;2347348;53;20943;-66
2021/05/08 07:20:56;;;;;;;3.67;1.50;;;14.50;76.80;;;;;;2597096;52;20894;-69
2021/05/08 07:23:23;;;;;;;3.65;1.60;;;14.60;76.70;;;;;;2624332;52;21086;-67
2021/05/08 07:26:22;;;;;;;3.33;1.60;;;14.80;77.10;;;;;;2370929;53;20950;-66
2021/05/08 07:29:00;;;;;;;3.05;1.37;;;15.00;75.30;;;;;;2351872;53;21022;-69
2021/05/08 07:31:27;;;;;;;4.53;1.50;;;15.20;75.50;;;;;;2365317;53;20989;-67
2021/05/08 07:33:53;;;;;;;3.42;1.30;;;15.30;76.70;;;;;;2357064;53;21016;-67
2021/05/08 07:36:20;;;;;;;3.05;1.60;;;15.50;76.70;;;;;;2367025;53;21022;-69
2021/05/08 07:38:46;;;;;;;3.53;1.50;;;15.70;77.30;;;;;;2355964;53;21003;-68
2021/05/08 07:41:13;;;;;;;3.45;1.33;;;15.80;78.30;;;;;;2352540;53;20942;-67
2021/05/08 07:43:39;;;;;;;2.45;1.30;;;16.10;79.80;;;;;;2367276;53;21001;-69
2021/05/08 07:46:05;;;;;;;2.90;1.33;;;16.40;81.30;;;;;;2370545;53;20970;-68
2021/05/08 07:48:33;;;;;;;3.12;1.50;;;16.80;82.00;;;;;;2333423;53;6862116;-68
2021/05/08 07:54:31;;;;;;;2.85;1.15;;;17.70;79.20;;;;;;2624315;52;21423;-68
2021/05/08 07:56:57;;;;;;;2.62;1.25;;;18.20;80.80;;;;;;2370977;53;21041;-69
2021/05/08 07:59:24;;;;;;;2.10;0.95;;;18.50;78.90;;;;;;2344500;53;20960;-67
2021/05/08 08:01:52;;;;;;;2.35;1.30;;;18.70;76.90;;;;;;2340247;53;20963;-67
2021/05/08 08:04:21;;;;;;;3.50;1.55;;;18.90;75.00;;;;;;2351719;54;20986;-67
2021/05/08 08:06:48;;;;;;;3.55;1.30;;;19.00;73.50;;;;;;2371575;53;21220;-68
2021/05/08 08:09:14;;;;;;;2.33;1.12;;;19.00;72.80;;;;;;2362352;53;20960;-69
2021/05/08 08:11:40;;;;;;;3.22;1.60;;;19.00;72.30;;;;;;2351588;53;20935;-68
2021/05/08 08:14:08;;;;;;;2.08;1.10;;;18.90;71.70;;;;;;2368933;53;21041;-68
2021/05/08 08:16:53;;;;;;;2.72;1.35;;;18.80;71.30;;;;;;2369089;53;20910;-66
2021/05/08 08:19:19;;;;;;;2.40;1.15;;;18.80;68.90;;;;;;2351632;53;20945;-68
2021/05/08 08:21:46;;;;;;;4.03;1.40;;;18.70;71.40;;;;;;2364959;53;21011;-69
2021/05/08 08:24:13;;;;;;;4.53;2.05;;;18.60;71.70;;;;;;2346124;54;22486;-69
2021/05/08 08:26:39;;;;;;;3.45;1.35;;;18.50;71.80;;;;;;2354908;53;21518;-68
2021/05/08 08:29:05;;;;;;;4.18;1.70;;;18.50;71.60;;;;;;2362661;53;20985;-68
2021/05/08 08:31:55;;;;;;;2.80;1.60;;;18.40;71.30;;;;;;2368140;53;20963;-69
2021/05/08 08:34:22;;;;;;;2.87;1.77;;;18.40;69.20;;;;;;2340507;55;20988;-68
2021/05/08 08:36:48;;;;;;;3.67;1.65;;;18.30;71.90;;;;;;2343679;54;20983;-69
2021/05/08 08:39:15;;;;;;;2.53;1.42;;;18.30;72.20;;;;;;2344042;53;20959;-70
2021/05/08 08:41:42;;;;;;;3.22;1.55;;;18.30;72.90;;;;;;2346914;53;20996;-68
2021/05/08 08:44:10;;;;;;;2.90;1.42;;;18.30;73.40;;;;;;2339251;53;20957;-67
2021/05/08 08:46:43;;;;;;;3.90;1.85;;;18.40;74.00;;;;;;2342827;53;21031;-67
2021/05/08 08:49:12;;;;;;;3.20;1.80;;;18.40;71.90;;;;;;2603524;52;21018;-68
2021/05/08 08:51:41;;;;;;;4.07;1.73;;;18.50;73.50;;;;;;2599014;52;20922;-70
2021/05/08 08:54:12;;;;;;;2.83;1.62;;;18.60;73.00;;;;;;2366443;53;20988;-68
2021/05/08 08:57:06;;;;;;;4.22;1.65;;;18.70;73.20;;;;;;2350916;54;20998;-69
2021/05/08 08:59:34;;;;;;;3.17;1.60;;;18.80;73.70;;;;;;2623841;52;20988;-70
2021/05/08 09:02:01;;;;;;;2.90;1.80;;;19.00;76.90;;;;;;2356319;53;21072;-68
2021/05/08 09:04:28;;;;;;;3.25;1.80;;;19.20;77.90;;;;;;2405926;53;20945;-69
2021/05/08 09:06:55;;;;;;;2.87;1.50;;;19.50;79.30;;;;;;2624339;52;20941;-68
2021/05/08 09:09:22;;;;;;;4.72;1.90;;;19.80;79.60;;;;;;2351720;53;20994;-68
2021/05/08 09:11:53;;;;;;;1.90;1.10;;;20.10;80.40;;;;;;2370725;53;21486;-68
2021/05/08 09:14:34;;;;;;;2.60;1.30;;;20.50;78.30;;;;;;2623822;52;20946;-68
2021/05/08 09:17:21;;;;;;;3.62;1.33;;;20.90;76.50;;;;;;2353197;53;20952;-70
2021/05/08 09:19:58;;;;;;;2.65;1.37;;;21.20;73.50;;;;;;2371755;53;21021;-68
2021/05/08 09:23:30;;;;;;;2.10;1.00;;;21.40;73.30;;;;;;2351656;53;21321;-71
2021/05/08 09:26:07;;;;;;;3.03;1.40;;;21.60;68.10;;;;;;2374481;53;20958;-70
2021/05/08 09:28:36;;;;;;;5.07;1.20;;;21.60;68.10;;;;;;2348392;53;20967;-68
2021/05/08 09:31:50;;;;;;;2.33;1.00;;;21.60;70.80;;;;;;2614988;52;20958;-67
2021/05/08 09:34:19;;;;;;;2.12;1.10;;;21.60;68.80;;;;;;2347147;53;20988;-67
2021/05/08 09:36:55;;;;;;;57.20;10.70;;;21.60;71.70;;;;;;2351199;53;20942;-70
2021/05/08 09:39:34;;;;;;;15.52;4.95;;;21.70;68.10;;;;;;2364822;53;20914;-69
2021/05/08 09:42:00;;;;;;;3.70;1.90;;;21.70;67.50;;;;;;2371439;53;20901;-69
2021/05/08 09:44:56;;;;;;;3.55;1.60;;;21.70;70.40;;;;;;2371046;53;20934;-69
2021/05/08 09:47:28;;;;;;;3.12;1.48;;;21.80;67.90;;;;;;2371001;53;21735;-67
2021/05/08 09:49:58;;;;;;;3.20;1.37;;;21.80;70.30;;;;;;2371647;53;20930;-69
2021/05/08 09:52:24;;;;;;;5.57;1.90;;;21.90;70.90;;;;;;2371936;53;20911;-69
2021/05/08 09:55:15;;;;;;;2.53;1.20;;;22.00;72.40;;;;;;2350990;53;20892;-70
2021/05/08 09:57:55;;;;;;;2.90;1.37;;;22.10;67.30;;;;;;2367347;53;21085;-70
2021/05/08 10:00:29;;;;;;;5.65;1.27;;;22.20;68.80;;;;;;2367917;53;20995;-68
2021/05/08 10:03:39;;;;;;;3.60;1.42;;;22.30;70.00;;;;;;2414444;53;20902;-72
2021/05/08 10:06:19;;;;;;;2.58;1.12;;;22.40;68.00;;;;;;2355051;53;20955;-69
2021/05/08 10:08:51;;;;;;;2.33;1.10;;;22.60;71.10;;;;;;2621106;52;20981;-71
2021/05/08 10:11:19;;;;;;;3.53;0.95;;;22.70;70.30;;;;;;2367058;53;20928;-70
2021/05/08 10:13:45;;;;;;;2.45;1.20;;;22.80;71.50;;;;;;2349227;53;20934;-68
2021/05/08 10:16:11;;;;;;;2.35;1.30;;;22.80;70.70;;;;;;2341143;54;20960;-70
2021/05/08 10:18:39;;;;;;;2.28;1.00;;;22.90;70.80;;;;;;2360520;53;21338;-71
2021/05/08 10:21:06;;;;;;;1.98;0.75;;;23.00;70.00;;;;;;2366374;53;20969;-71
2021/05/08 10:23:33;;;;;;;1.98;0.77;;;23.10;69.60;;;;;;2351183;53;20917;-71
2021/05/08 10:26:03;;;;;;;1.58;0.75;;;23.20;69.60;;;;;;2341169;53;21075;-70
2021/05/08 10:28:29;;;;;;;1.92;0.80;;;23.20;68.40;;;;;;2616885;52;20919;-70
2021/05/08 10:30:55;;;;;;;2.42;0.80;;;23.30;69.00;;;;;;2371160;53;20970;-70
2021/05/08 10:33:23;;;;;;;1.98;0.73;;;23.30;68.50;;;;;;2614221;52;21055;-69
2021/05/08 10:35:52;;;;;;;2.90;0.95;;;23.40;68.80;;;;;;2605705;52;20914;-71
2021/05/08 10:38:27;;;;;;;2.47;0.70;;;23.50;67.10;;;;;;2365992;53;21493;-69
2021/05/08 10:41:04;;;;;;;2.17;0.80;;;23.50;61.10;;;;;;2459668;52;20935;-66
2021/05/08 10:44:03;;;;;;;3.50;1.70;;;23.50;61.40;;;;;;2349901;53;20986;-68
2021/05/08 10:46:51;;;;;;;2.00;1.00;;;23.60;62.00;;;;;;2357513;53;20922;-67
2021/05/08 10:49:19;;;;;;;2.10;0.90;;;23.60;63.60;;;;;;2601005;52;20994;-69
2021/05/08 10:52:01;;;;;;;2.40;0.70;;;23.70;66.60;;;;;;2363363;53;20939;-68
2021/05/08 10:54:53;;;;;;;3.80;1.05;;;23.90;63.60;;;;;;2340765;53;21003;-71
2021/05/08 10:57:24;;;;;;;3.67;1.30;;;24.10;62.20;;;;;;2354408;54;21010;-69
2021/05/08 11:00:52;;;;;;;2.90;1.20;;;24.20;65.90;;;;;;2371460;53;20961;-69
2021/05/08 11:03:19;;;;;;;2.33;0.90;;;24.40;61.20;;;;;;2346961;54;20965;-70
2021/05/08 11:06:03;;;;;;;2.58;0.70;;;24.40;66.10;;;;;;2605724;52;20930;-70
2021/05/08 11:08:51;;;;;;;2.15;0.70;;;24.60;64.10;;;;;;2444915;52;20888;-70
2021/05/08 11:11:25;;;;;;;1.67;0.73;;;24.70;62.70;;;;;;2371412;53;21556;-68
2021/05/08 11:13:59;;;;;;;2.15;0.70;;;24.90;64.30;;;;;;2371365;53;20996;-71
2021/05/08 11:16:29;;;;;;;1.60;0.57;;;25.00;64.30;;;;;;2365977;53;21022;-67
2021/05/08 11:18:57;;;;;;;1.52;0.70;;;25.10;63.80;;;;;;2345951;53;20962;-69
2021/05/08 11:21:41;;;;;;;1.70;0.80;;;25.20;64.00;;;;;;2581842;52;21013;-71
2021/05/08 11:24:09;;;;;;;1.10;0.50;;;25.30;60.50;;;;;;2373700;53;21899;-70
2021/05/08 11:26:42;;;;;;;2.78;0.80;;;25.30;63.20;;;;;;2371777;53;21814;-71
2021/05/08 11:33:21;;;;;;;1.90;0.60;;;25.30;59.60;;;;;;2619735;52;20952;-69
2021/05/08 11:36:11;;;;;;;2.10;0.60;;;25.20;58.50;;;;;;2362238;53;21025;-72
2021/05/08 11:38:39;;;;;;;2.35;1.00;;;25.10;59.20;;;;;;2350608;54;20950;-70
2021/05/08 11:41:22;;;;;;;1.85;0.70;;;25.00;61.00;;;;;;2371129;53;20982;-71
2021/05/08 11:43:52;;;;;;;1.37;0.65;;;24.90;58.90;;;;;;2623400;52;21006;-71
2021/05/08 11:46:25;;;;;;;2.47;0.70;;;24.80;58.80;;;;;;2371572;53;20950;-67
2021/05/08 11:48:51;;;;;;;1.87;0.70;;;24.70;58.50;;;;;;2373570;53;20981;-68
2021/05/08 11:51:17;;;;;;;2.50;0.75;;;24.60;59.50;;;;;;2350201;53;20946;-69
2021/05/08 11:53:44;;;;;;;1.40;0.60;;;24.40;59.10;;;;;;2371402;53;20962;-68
2021/05/08 11:56:10;;;;;;;1.50;0.60;;;24.30;58.60;;;;;;2371361;53;20966;-68
2021/05/08 11:58:37;;;;;;;1.35;0.70;;;24.20;58.80;;;;;;2624379;52;21260;-67
2021/05/08 12:01:05;;;;;;;1.75;0.65;;;24.10;58.00;;;;;;2371281;53;20922;-68
2021/05/08 12:03:31;;;;;;;1.42;0.62;;;23.90;58.20;;;;;;2371764;53;20922;-68
2021/05/08 12:05:58;;;;;;;1.52;0.70;;;23.80;58.30;;;;;;2371640;53;20942;-68
2021/05/08 12:08:24;;;;;;;1.37;0.62;;;23.70;58.40;;;;;;2371836;53;20954;-68
2021/05/08 12:10:51;;;;;;;2.35;0.70;;;23.50;58.10;;;;;;2367428;53;21019;-68
2021/05/08 12:13:18;;;;;;;1.70;0.77;;;23.50;58.20;;;;;;2350594;53;20951;-67
2021/05/08 12:15:50;;;;;;;1.48;0.62;;;23.40;58.00;;;;;;2351951;54;21365;-68
2021/05/08 12:18:17;;;;;;;1.33;0.65;;;23.20;58.20;;;;;;2345374;54;21878;-67
2021/05/08 12:20:51;;;;;;;2.20;0.80;;;23.10;58.40;;;;;;2347406;53;20944;-67
2021/05/08 12:23:19;;;;;;;1.30;0.60;;;23.10;57.10;;;;;;2385388;53;21033;-69
2021/05/08 12:27:14;;;;;;;1.70;0.75;;;23.00;57.90;;;;;;2608811;52;20966;-67
2021/05/08 12:29:53;;;;;;;1.50;0.60;;;22.90;55.60;;;;;;2618683;52;20906;-70
2021/05/08 12:32:19;;;;;;;2.42;0.70;;;22.80;56.30;;;;;;2359971;53;20931;-68
2021/05/08 12:34:51;;;;;;;1.85;0.60;;;22.80;58.50;;;;;;2359600;54;20998;-69
2021/05/08 12:37:17;;;;;;;2.28;0.90;;;22.70;58.30;;;;;;2344913;54;20943;-67
2021/05/08 12:40:35;;;;;;;1.73;0.70;;;22.70;57.20;;;;;;2350772;53;20938;-69
2021/05/08 12:43:04;;;;;;;1.08;0.47;;;22.70;56.20;;;;;;2371633;53;20926;-67
2021/05/08 12:45:32;;;;;;;1.98;0.80;;;22.60;59.00;;;;;;2615062;52;20963;-67
2021/05/08 12:47:58;;;;;;;1.15;0.45;;;22.60;59.40;;;;;;2346792;54;21408;-69
2021/05/08 12:50:36;;;;;;;1.10;0.52;;;22.60;59.50;;;;;;2359877;53;20965;-68
2021/05/08 12:53:04;;;;;;;1.60;0.70;;;22.60;57.50;;;;;;2371751;53;20997;-70
2021/05/08 12:59:00;;;;;;;1.50;0.65;;;22.70;57.90;;;;;;2602792;52;21576;-66
2021/05/08 13:05:18;;;;;;;4.85;0.90;;;22.80;60.50;;;;;;2362647;54;20955;-70
2021/05/08 13:08:01;;;;;;;2.00;0.60;;;22.80;57.40;;;;;;2350033;53;21659;-69
2021/05/08 13:10:32;;;;;;;1.75;0.57;;;22.90;57.20;;;;;;2372399;53;20958;-67
2021/05/08 13:13:18;;;;;;;2.08;0.60;;;23.00;58.70;;;;;;2366993;53;21001;-67
2021/05/08 13:19:13;;;;;;;0.52;0.30;;;23.00;58.30;;;;;;2537382;52;20923;-70
2021/05/08 13:21:39;;;;;;;1.17;0.47;;;23.20;58.50;;;;;;2494102;52;20927;-68
2021/05/08 13:24:07;;;;;;;1.02;0.40;;;23.20;58.80;;;;;;2624871;52;21383;-67
2021/05/08 13:26:34;;;;;;;0.85;0.40;;;23.30;58.40;;;;;;2373731;56;21042;-67
2021/05/08 13:29:01;;;;;;;0.90;0.40;;;23.40;58.40;;;;;;2373086;56;21134;-67
2021/05/08 13:31:27;;;;;;;4.72;0.80;;;23.40;59.30;;;;;;2360170;54;21056;-67